createdAt,value
2024-03-31T00:00:55.770Z,95.8053
2024-03-31T00:01:59.083Z,96.0204
2024-03-31T00:03:02.062Z,96.2310
2024-03-31T00:04:05.219Z,96.2814
2024-03-31T00:05:08.509Z,96.3775
2024-03-31T00:06:11.624Z,96.3836
2024-03-31T00:07:14.808Z,96.5194
2024-03-31T00:08:17.808Z,96.6522
2024-03-31T00:09:20.860Z,96.7178
2024-03-31T00:10:23.868Z,96.8261
2024-03-31T00:11:27.081Z,96.8078
2024-03-31T00:12:30.162Z,96.9268
2024-03-31T00:13:33.217Z,97.0428
2024-03-31T00:14:36.532Z,97.1344
2024-03-31T00:15:39.630Z,97.2381
2024-03-31T00:16:42.590Z,97.3404
2024-03-31T00:17:45.690Z,97.4365
2024-03-31T00:18:48.819Z,97.5051
2024-03-31T00:19:51.876Z,97.5189
2024-03-31T00:20:54.895Z,97.5540
2024-03-31T00:21:57.942Z,97.5814
2024-03-31T00:23:00.982Z,97.6150
2024-03-31T00:24:04.053Z,97.6089
2024-03-31T00:25:07.084Z,97.6654
2024-03-31T00:26:10.122Z,97.6730
2024-03-31T00:27:13.068Z,97.7386
2024-03-31T00:28:16.229Z,97.7966
2024-03-31T00:29:20.405Z,97.7523
2024-03-31T00:30:23.365Z,97.8103
2024-03-31T00:31:26.487Z,97.8256
2024-03-31T00:32:29.729Z,97.8424
2024-03-31T00:33:32.839Z,97.8759
2024-03-31T00:34:37.024Z,97.8653
2024-03-31T00:35:40.038Z,97.9080
2024-03-31T00:36:43.107Z,97.9721
2024-03-31T00:37:46.144Z,97.9995
2024-03-31T00:38:49.145Z,97.9995
2024-03-31T00:39:52.218Z,98.0438
2024-03-31T00:40:55.259Z,98.1003
2024-03-31T00:41:59.235Z,98.0819
2024-03-31T00:43:02.296Z,98.1216
2024-03-31T00:44:05.335Z,98.1689
2024-03-31T00:45:08.538Z,98.2681
2024-03-31T00:46:11.651Z,98.2635
2024-03-31T00:47:14.831Z,98.3337
2024-03-31T00:48:17.927Z,98.3429
2024-03-31T00:49:20.889Z,98.3505
2024-03-31T00:50:23.827Z,98.3734
2024-03-31T00:51:26.819Z,98.3688
2024-03-31T00:52:29.887Z,98.3291
2024-03-31T00:53:33.022Z,98.3291
2024-03-31T00:54:36.022Z,98.3413
2024-03-31T00:55:39.104Z,98.3230
2024-03-31T00:56:42.064Z,98.3429
2024-03-31T00:57:45.157Z,98.3520
2024-03-31T00:58:48.192Z,98.3368
2024-03-31T00:59:51.290Z,98.3246
2024-03-31T01:00:54.296Z,98.3139
2024-03-31T01:01:57.348Z,98.3017
2024-03-31T01:03:00.425Z,98.2498
2024-03-31T01:04:03.415Z,98.2651
2024-03-31T01:05:06.485Z,98.2925
2024-03-31T01:06:09.476Z,98.2651
2024-03-31T01:07:12.542Z,98.2467
2024-03-31T01:08:15.535Z,98.1826
2024-03-31T01:09:20.764Z,98.1826
2024-03-31T01:10:23.908Z,98.1949
2024-03-31T01:11:26.936Z,98.1735
2024-03-31T01:12:30.006Z,98.2010
2024-03-31T01:13:32.988Z,98.1582
2024-03-31T01:14:36.058Z,98.1826
2024-03-31T01:15:39.088Z,98.2269
2024-03-31T01:16:42.143Z,98.1994
2024-03-31T01:17:45.174Z,98.1811
2024-03-31T01:18:48.234Z,98.1903
2024-03-31T01:19:51.168Z,98.2132
2024-03-31T01:20:54.494Z,98.2177
2024-03-31T01:21:57.644Z,98.2193
2024-03-31T01:23:00.622Z,98.2681
2024-03-31T01:24:03.748Z,98.2681
2024-03-31T01:25:06.798Z,98.2696
2024-03-31T01:26:09.971Z,98.3459
2024-03-31T01:27:13.094Z,98.2910
2024-03-31T01:28:16.232Z,98.2834
2024-03-31T01:29:19.411Z,98.2406
2024-03-31T01:30:22.375Z,98.2788
2024-03-31T01:31:25.579Z,98.3459
2024-03-31T01:32:28.847Z,98.3185
2024-03-31T01:33:32.019Z,98.3291
2024-03-31T01:34:35.074Z,98.3566
2024-03-31T01:35:38.339Z,98.3413
2024-03-31T01:36:41.447Z,98.4100
2024-03-31T01:37:44.538Z,98.3917
2024-03-31T01:38:55.197Z,98.4329
2024-03-31T01:39:56.376Z,98.4604
2024-03-31T01:40:59.431Z,98.4298
2024-03-31T01:42:02.456Z,98.4649
2024-03-31T01:43:05.481Z,98.4466
2024-03-31T01:44:08.520Z,98.4787
2024-03-31T01:45:11.503Z,98.4939
2024-03-31T01:46:14.649Z,98.4649
2024-03-31T01:47:17.663Z,98.5061
2024-03-31T01:48:20.828Z,98.4848
2024-03-31T01:49:23.961Z,98.5153
2024-03-31T01:50:27.059Z,98.5199
2024-03-31T01:51:30.313Z,98.5306
2024-03-31T01:52:33.377Z,98.5153
2024-03-31T01:53:36.580Z,98.4802
2024-03-31T01:54:39.808Z,98.5122
2024-03-31T01:55:42.935Z,98.5016
2024-03-31T01:56:45.987Z,98.5473
2024-03-31T01:57:48.984Z,98.5351
2024-03-31T01:58:51.934Z,98.5428
2024-03-31T01:59:55.076Z,98.6114
2024-03-31T02:00:58.270Z,98.5901
2024-03-31T02:02:01.365Z,98.6023
2024-03-31T02:03:04.539Z,98.5840
2024-03-31T02:04:07.730Z,98.6160
2024-03-31T02:05:10.818Z,98.5946
2024-03-31T02:06:13.972Z,98.6526
2024-03-31T02:07:16.954Z,98.7030
2024-03-31T02:08:20.072Z,98.6984
2024-03-31T02:09:23.099Z,98.6938
2024-03-31T02:10:26.097Z,98.7030
2024-03-31T02:11:29.153Z,98.6526
2024-03-31T02:12:32.231Z,98.7182
2024-03-31T02:13:35.251Z,98.7579
2024-03-31T02:14:38.241Z,98.7686
2024-03-31T02:15:41.337Z,98.7579
2024-03-31T02:16:44.384Z,98.7091
2024-03-31T02:17:47.405Z,98.7625
2024-03-31T02:18:50.447Z,98.7396
2024-03-31T02:19:53.423Z,98.7091
2024-03-31T02:20:56.474Z,98.7579
2024-03-31T02:21:59.600Z,98.7732
2024-03-31T02:23:02.606Z,98.7686
2024-03-31T02:24:05.588Z,98.8037
2024-03-31T02:25:08.573Z,98.8312
2024-03-31T02:26:11.723Z,98.8998
2024-03-31T02:27:14.700Z,98.9227
2024-03-31T02:28:17.768Z,98.9563
2024-03-31T02:29:20.859Z,98.9380
2024-03-31T02:30:23.853Z,98.9105
2024-03-31T02:31:26.950Z,98.9502
2024-03-31T02:32:29.949Z,99.0005
2024-03-31T02:33:33.022Z,98.9883
2024-03-31T02:34:36.047Z,99.0295
2024-03-31T02:35:39.046Z,99.0234
2024-03-31T02:36:42.140Z,99.0463
2024-03-31T02:37:45.118Z,99.0845
2024-03-31T02:38:48.219Z,99.0921
2024-03-31T02:39:51.239Z,99.1119
2024-03-31T02:40:54.248Z,99.1104
2024-03-31T02:41:57.355Z,99.1119
2024-03-31T02:43:00.377Z,99.0967
2024-03-31T02:44:03.358Z,99.1028
2024-03-31T02:45:06.387Z,99.1058
2024-03-31T02:46:09.380Z,99.1424
2024-03-31T02:47:12.486Z,99.1943
2024-03-31T02:48:15.583Z,99.2020
2024-03-31T02:49:18.557Z,99.1974
2024-03-31T02:50:21.638Z,99.2340
2024-03-31T02:51:24.686Z,99.2431
2024-03-31T02:52:27.747Z,99.2248
2024-03-31T02:53:30.790Z,99.2767
2024-03-31T02:54:33.826Z,99.3042
2024-03-31T02:55:36.829Z,99.2905
2024-03-31T02:56:39.924Z,99.2843
2024-03-31T02:57:42.949Z,99.3027
2024-03-31T02:58:45.981Z,99.3255
2024-03-31T02:59:48.967Z,99.3271
2024-03-31T03:00:52.030Z,99.3225
2024-03-31T03:01:55.085Z,99.3393
2024-03-31T03:02:58.149Z,99.3896
2024-03-31T03:04:01.135Z,99.3576
2024-03-31T03:05:04.191Z,99.3439
2024-03-31T03:06:07.188Z,99.3484
2024-03-31T03:07:10.269Z,99.3942
2024-03-31T03:08:13.355Z,99.3774
2024-03-31T03:09:16.362Z,99.4263
2024-03-31T03:10:19.351Z,99.4049
2024-03-31T03:11:22.456Z,99.3759
2024-03-31T03:12:26.475Z,99.4308
2024-03-31T03:13:29.443Z,99.4324
2024-03-31T03:14:32.550Z,99.4492
2024-03-31T03:15:35.597Z,99.4781
2024-03-31T03:16:38.574Z,99.4415
2024-03-31T03:17:41.638Z,99.4644
2024-03-31T03:18:44.731Z,99.4720
2024-03-31T03:19:47.711Z,99.4553
2024-03-31T03:20:50.780Z,99.4919
2024-03-31T03:21:53.836Z,99.4507
2024-03-31T03:22:56.823Z,99.5087
2024-03-31T03:23:59.785Z,99.4583
2024-03-31T03:25:02.942Z,99.4858
2024-03-31T03:26:05.998Z,99.4919
2024-03-31T03:27:09.014Z,99.5224
2024-03-31T03:28:12.060Z,99.5407
2024-03-31T03:29:15.061Z,99.5422
2024-03-31T03:30:18.116Z,99.5148
2024-03-31T03:31:21.163Z,99.5468
2024-03-31T03:32:24.219Z,99.4949
2024-03-31T03:33:27.364Z,99.5422
2024-03-31T03:34:30.380Z,99.5590
2024-03-31T03:35:33.545Z,99.5361
2024-03-31T03:36:36.545Z,99.5148
2024-03-31T03:37:39.639Z,99.4903
2024-03-31T03:38:42.779Z,99.4690
2024-03-31T03:39:45.768Z,99.4644
2024-03-31T03:40:48.743Z,99.4140
2024-03-31T03:41:51.873Z,99.4400
2024-03-31T03:42:54.929Z,99.3637
2024-03-31T03:43:57.967Z,99.3027
2024-03-31T03:45:00.987Z,99.2767
2024-03-31T03:46:04.061Z,99.2935
2024-03-31T03:47:07.125Z,99.2477
2024-03-31T03:48:10.113Z,99.2248
2024-03-31T03:49:13.173Z,99.2676
2024-03-31T03:50:16.167Z,99.2630
2024-03-31T03:51:19.264Z,99.2767
2024-03-31T03:52:22.315Z,99.2355
2024-03-31T03:53:25.369Z,99.2493
2024-03-31T03:54:28.372Z,99.3225
2024-03-31T03:55:31.388Z,99.3301
2024-03-31T03:56:34.323Z,99.2706
2024-03-31T03:57:37.420Z,99.2493
2024-03-31T03:58:40.566Z,99.2493
2024-03-31T03:59:43.591Z,99.2721
2024-03-31T04:00:46.579Z,99.2843
2024-03-31T04:01:50.633Z,99.2935
2024-03-31T04:02:53.597Z,99.2889
2024-03-31T04:03:56.708Z,99.3027
2024-03-31T04:04:59.743Z,99.2950
2024-03-31T04:06:02.757Z,99.3118
2024-03-31T04:07:05.805Z,99.3576
2024-03-31T04:08:08.869Z,99.3255
2024-03-31T04:09:11.837Z,99.3805
2024-03-31T04:10:14.963Z,99.3393
2024-03-31T04:11:17.987Z,99.3866
2024-03-31T04:12:20.962Z,99.3530
2024-03-31T04:13:24.040Z,99.3545
2024-03-31T04:14:27.097Z,99.3851
2024-03-31T04:15:30.094Z,99.3637
2024-03-31T04:16:33.186Z,99.3637
2024-03-31T04:17:36.221Z,99.3820
2024-03-31T04:18:39.226Z,99.4003
2024-03-31T04:19:42.148Z,99.4140
2024-03-31T04:20:45.136Z,99.3988
2024-03-31T04:21:48.257Z,99.4034
2024-03-31T04:22:51.224Z,99.4354
2024-03-31T04:23:54.322Z,99.4232
2024-03-31T04:24:57.471Z,99.3957
2024-03-31T04:26:00.535Z,99.4492
2024-03-31T04:27:03.588Z,99.4400
2024-03-31T04:28:06.613Z,99.4537
2024-03-31T04:29:09.648Z,99.4461
2024-03-31T04:30:12.708Z,99.5087
2024-03-31T04:31:15.760Z,99.5361
2024-03-31T04:32:18.774Z,99.5636
2024-03-31T04:33:21.874Z,99.5514
2024-03-31T04:34:24.867Z,99.5560
2024-03-31T04:35:27.852Z,99.5499
2024-03-31T04:36:30.926Z,99.5682
2024-03-31T04:37:33.990Z,99.5819
2024-03-31T04:38:36.977Z,99.5727
2024-03-31T04:39:39.958Z,99.5377
2024-03-31T04:40:43.085Z,99.5743
2024-03-31T04:41:46.280Z,99.5377
2024-03-31T04:42:49.375Z,99.5422
2024-03-31T04:43:52.523Z,99.4995
2024-03-31T04:44:55.725Z,99.4965
2024-03-31T04:45:58.820Z,99.4827
2024-03-31T04:47:01.965Z,99.4919
2024-03-31T04:48:05.172Z,99.4095
2024-03-31T04:49:08.169Z,99.4217
2024-03-31T04:50:11.300Z,99.3362
2024-03-31T04:51:14.438Z,99.3072
2024-03-31T04:52:17.498Z,99.3210
2024-03-31T04:53:20.539Z,99.3088
2024-03-31T04:54:23.549Z,99.3530
2024-03-31T04:55:26.603Z,99.2889
2024-03-31T04:56:29.649Z,99.3027
2024-03-31T04:57:32.658Z,99.3072
2024-03-31T04:58:35.705Z,99.3133
2024-03-31T04:59:38.799Z,99.2950
2024-03-31T05:00:41.893Z,99.3179
2024-03-31T05:01:44.854Z,99.3362
2024-03-31T05:02:47.904Z,99.3591
2024-03-31T05:03:50.962Z,99.3957
2024-03-31T05:04:53.994Z,99.3759
2024-03-31T05:05:57.011Z,99.4140
2024-03-31T05:07:00.025Z,99.3912
2024-03-31T05:08:03.043Z,99.3896
2024-03-31T05:09:05.989Z,99.4125
2024-03-31T05:10:09.059Z,99.4324
2024-03-31T05:11:12.225Z,99.4675
2024-03-31T05:12:15.286Z,99.4720
2024-03-31T05:13:18.498Z,99.4461
2024-03-31T05:14:21.583Z,99.4598
2024-03-31T05:15:24.708Z,99.4537
2024-03-31T05:16:27.739Z,99.5010
2024-03-31T05:17:30.757Z,99.4736
2024-03-31T05:18:33.832Z,99.4537
2024-03-31T05:19:36.839Z,99.4537
2024-03-31T05:20:39.787Z,99.4720
2024-03-31T05:21:42.916Z,99.4354
2024-03-31T05:22:45.983Z,99.4492
2024-03-31T05:23:49.024Z,99.4400
2024-03-31T05:24:52.059Z,99.4324
2024-03-31T05:25:55.123Z,99.4965
2024-03-31T05:26:58.144Z,99.4690
2024-03-31T05:28:01.147Z,99.4598
2024-03-31T05:29:04.240Z,99.4415
2024-03-31T05:30:07.245Z,99.4537
2024-03-31T05:31:10.377Z,99.4461
2024-03-31T05:32:13.563Z,99.4812
2024-03-31T05:33:16.673Z,99.4278
2024-03-31T05:34:19.649Z,99.3728
2024-03-31T05:35:22.756Z,99.3255
2024-03-31T05:36:25.825Z,99.3728
2024-03-31T05:37:28.862Z,99.3500
2024-03-31T05:38:31.919Z,99.3072
2024-03-31T05:39:34.927Z,99.3225
2024-03-31T05:40:37.920Z,99.2767
2024-03-31T05:41:41.001Z,99.2843
2024-03-31T05:42:44.078Z,99.2294
2024-03-31T05:43:47.031Z,99.1974
2024-03-31T05:44:50.180Z,99.2248
2024-03-31T05:45:53.167Z,99.1852
2024-03-31T05:46:56.365Z,99.1577
2024-03-31T05:47:59.507Z,99.1485
2024-03-31T05:49:02.632Z,99.1058
2024-03-31T05:50:05.795Z,99.0799
2024-03-31T05:51:08.892Z,99.0524
2024-03-31T05:52:12.037Z,99.0524
2024-03-31T05:53:15.243Z,98.9837
2024-03-31T05:54:18.367Z,98.9731
2024-03-31T05:55:21.330Z,98.9380
2024-03-31T05:56:24.415Z,98.9151
2024-03-31T05:57:27.604Z,98.9136
2024-03-31T05:58:30.602Z,98.8876
2024-03-31T05:59:33.582Z,98.8357
2024-03-31T06:00:36.537Z,98.7823
2024-03-31T06:01:39.619Z,98.7457
2024-03-31T06:02:42.765Z,98.7579
2024-03-31T06:03:45.805Z,98.7488
2024-03-31T06:04:48.872Z,98.7167
2024-03-31T06:05:51.893Z,98.6496
2024-03-31T06:06:54.962Z,98.5992
2024-03-31T06:07:58.024Z,98.4756
2024-03-31T06:09:01.005Z,98.3703
2024-03-31T06:10:04.125Z,98.3337
2024-03-31T06:11:07.118Z,98.2742
2024-03-31T06:12:10.110Z,98.2223
2024-03-31T06:13:13.123Z,98.1003
2024-03-31T06:14:16.208Z,98.0117
2024-03-31T06:15:19.233Z,97.9263
2024-03-31T06:16:22.211Z,97.8210
2024-03-31T06:17:25.475Z,97.8744
2024-03-31T06:18:28.583Z,97.8561
2024-03-31T06:19:31.860Z,97.9309
2024-03-31T06:20:34.967Z,97.9263
2024-03-31T06:21:38.085Z,97.9889
2024-03-31T06:22:41.317Z,97.9904
2024-03-31T06:23:44.421Z,97.9889
2024-03-31T06:24:47.616Z,97.9767
2024-03-31T06:25:50.607Z,98.0041
2024-03-31T06:26:53.665Z,97.9629
2024-03-31T06:27:56.707Z,97.9263
2024-03-31T06:28:59.889Z,97.8378
2024-03-31T06:30:02.982Z,97.8668
2024-03-31T06:31:06.016Z,97.7340
2024-03-31T06:32:09.360Z,97.7203
2024-03-31T06:33:12.428Z,97.6593
2024-03-31T06:34:15.564Z,97.5448
2024-03-31T06:35:18.764Z,97.4640
2024-03-31T06:36:21.851Z,97.3037
2024-03-31T06:37:25.025Z,97.0825
2024-03-31T06:38:28.065Z,96.7544
2024-03-31T06:39:31.089Z,96.4462
2024-03-31T06:40:34.164Z,96.4828
2024-03-31T06:41:37.159Z,96.5331
2024-03-31T06:42:40.201Z,96.3226
2024-03-31T06:43:43.260Z,96.2356
2024-03-31T06:44:46.304Z,95.9472
2024-03-31T06:45:49.367Z,96.1486
2024-03-31T06:46:52.389Z,96.3195
2024-03-31T06:47:55.409Z,96.0342
2024-03-31T06:48:58.471Z,95.9930
2024-03-31T06:50:01.505Z,95.9579
2024-03-31T06:51:04.684Z,95.8785
2024-03-31T06:52:09.686Z,95.6786
2024-03-31T06:53:12.792Z,95.5993
2024-03-31T06:54:15.773Z,95.4894
2024-03-31T06:55:18.918Z,95.7336
2024-03-31T06:56:22.098Z,95.7641
2024-03-31T06:57:25.250Z,95.3292
2024-03-31T06:58:28.263Z,95.0286
2024-03-31T06:59:31.364Z,95.1614
2024-03-31T07:00:34.466Z,94.6700
2024-03-31T07:01:37.457Z,94.2504
2024-03-31T07:02:40.690Z,94.9096
2024-03-31T07:03:43.799Z,94.3053
2024-03-31T07:04:46.904Z,94.5022
2024-03-31T07:05:49.922Z,94.5113
2024-03-31T07:06:53.002Z,94.4518
2024-03-31T07:07:56.080Z,94.6532
2024-03-31T07:08:59.040Z,94.7890
2024-03-31T07:10:02.093Z,94.2855
2024-03-31T07:11:05.188Z,94.5510
2024-03-31T07:12:08.241Z,94.1985
2024-03-31T07:13:11.232Z,94.4976
2024-03-31T07:14:14.331Z,94.3145
2024-03-31T07:15:17.382Z,94.3053
2024-03-31T07:16:20.398Z,94.0383
2024-03-31T07:17:23.443Z,93.5439
2024-03-31T07:18:26.471Z,93.4066
2024-03-31T07:19:29.519Z,94.7082
2024-03-31T07:20:32.540Z,94.9996
2024-03-31T07:21:35.569Z,95.0790
2024-03-31T07:22:38.580Z,94.8943
2024-03-31T07:23:41.766Z,94.3053
2024-03-31T07:24:44.770Z,94.2321
2024-03-31T07:25:47.955Z,93.7606
2024-03-31T07:26:51.102Z,93.8842
2024-03-31T07:27:54.114Z,94.0383
2024-03-31T07:28:57.175Z,93.9254
2024-03-31T07:30:00.257Z,93.6904
2024-03-31T07:31:03.246Z,93.4295
2024-03-31T07:32:06.188Z,93.3791
2024-03-31T07:33:09.325Z,92.8084
2024-03-31T07:34:12.583Z,93.5348
2024-03-31T07:35:15.753Z,93.2662
2024-03-31T07:36:18.795Z,93.4539
2024-03-31T07:37:21.822Z,93.2708
2024-03-31T07:38:24.867Z,93.1975
2024-03-31T07:39:27.846Z,92.9458
2024-03-31T07:40:30.926Z,93.4859
2024-03-31T07:41:34.142Z,93.4539
2024-03-31T07:42:37.225Z,93.2433
2024-03-31T07:43:40.374Z,93.1151
2024-03-31T07:44:43.423Z,93.2281
2024-03-31T07:45:46.463Z,92.4178
2024-03-31T07:46:49.510Z,92.5002
2024-03-31T07:47:52.558Z,92.4681
2024-03-31T07:48:55.578Z,91.7418
2024-03-31T07:49:58.622Z,91.5297
2024-03-31T07:51:01.613Z,91.5984
2024-03-31T07:52:04.724Z,90.4814
2024-03-31T07:53:09.349Z,89.6254
2024-03-31T07:54:13.978Z,90.6798
2024-03-31T07:55:17.164Z,90.3853
2024-03-31T07:56:20.283Z,90.3136
2024-03-31T07:57:23.389Z,89.1188
2024-03-31T07:58:26.390Z,89.1920
2024-03-31T07:59:29.493Z,88.7510
2024-03-31T08:00:32.544Z,88.2658
2024-03-31T08:01:35.722Z,87.4418
2024-03-31T08:02:38.818Z,88.3528
2024-03-31T08:03:41.981Z,86.8009
2024-03-31T08:04:44.968Z,85.4139
2024-03-31T08:05:48.069Z,87.9240
2024-03-31T08:06:51.125Z,86.0288
2024-03-31T08:07:54.104Z,87.6036
2024-03-31T08:08:57.179Z,86.0060
2024-03-31T08:10:00.292Z,86.5324
2024-03-31T08:11:03.390Z,87.5654
2024-03-31T08:12:06.507Z,86.3386
2024-03-31T08:13:09.535Z,85.3925
2024-03-31T08:14:12.851Z,86.2974
2024-03-31T08:15:15.943Z,87.1046
2024-03-31T08:16:19.083Z,86.5034
2024-03-31T08:17:22.263Z,85.3132
2024-03-31T08:18:25.392Z,85.0385
2024-03-31T08:19:28.561Z,84.0375
2024-03-31T08:20:31.611Z,84.8692
2024-03-31T08:21:34.594Z,82.3621
2024-03-31T08:22:37.645Z,82.3331
2024-03-31T08:23:40.726Z,82.3026
2024-03-31T08:24:43.753Z,84.6098
2024-03-31T08:25:46.809Z,83.2258
2024-03-31T08:26:49.777Z,82.2797
2024-03-31T08:27:52.858Z,82.1729
2024-03-31T08:28:55.934Z,82.3529
2024-03-31T08:29:58.932Z,83.2486
2024-03-31T08:31:01.948Z,83.5599
2024-03-31T08:32:05.033Z,82.9419
2024-03-31T08:33:08.037Z,83.7842
2024-03-31T08:34:11.016Z,84.2878
2024-03-31T08:35:14.147Z,85.0019
2024-03-31T08:36:17.190Z,82.3163
2024-03-31T08:37:20.414Z,82.4857
2024-03-31T08:38:23.590Z,81.5366
2024-03-31T08:39:26.583Z,82.5452
2024-03-31T08:40:29.668Z,82.5620
2024-03-31T08:41:32.690Z,82.9191
2024-03-31T08:42:35.719Z,82.6413
2024-03-31T08:43:38.963Z,82.8656
2024-03-31T08:44:42.139Z,84.5548
2024-03-31T08:45:45.162Z,84.5350
2024-03-31T08:46:48.223Z,83.5737
2024-03-31T08:47:51.237Z,82.4475
2024-03-31T08:48:54.301Z,83.0518
2024-03-31T08:49:57.317Z,83.0381
2024-03-31T08:51:00.384Z,83.5462
2024-03-31T08:52:03.460Z,82.5727
2024-03-31T08:53:06.439Z,83.7476
2024-03-31T08:54:09.505Z,83.7766
2024-03-31T08:55:12.549Z,84.4404
2024-03-31T08:56:15.514Z,82.6078
2024-03-31T08:57:18.615Z,83.3188
2024-03-31T08:58:21.693Z,81.7700
2024-03-31T08:59:24.674Z,81.3733
2024-03-31T09:00:27.754Z,81.8891
2024-03-31T09:01:30.779Z,81.3123
2024-03-31T09:02:33.966Z,81.0620
2024-03-31T09:03:36.959Z,81.0056
2024-03-31T09:04:39.947Z,81.8540
2024-03-31T09:05:42.912Z,81.2955
2024-03-31T09:06:45.988Z,80.8866
2024-03-31T09:07:49.015Z,80.3296
2024-03-31T09:08:52.018Z,80.2090
2024-03-31T09:09:55.299Z,79.7665
2024-03-31T09:10:58.464Z,79.2538
2024-03-31T09:12:01.472Z,79.7101
2024-03-31T09:13:07.198Z,81.7060
2024-03-31T09:14:10.408Z,80.7309
2024-03-31T09:15:13.501Z,81.9867
2024-03-31T09:16:16.549Z,81.0163
2024-03-31T09:17:19.595Z,81.2070
2024-03-31T09:18:22.642Z,82.2873
2024-03-31T09:19:25.739Z,82.3880
2024-03-31T09:20:28.696Z,82.3621
2024-03-31T09:21:31.746Z,83.4913
2024-03-31T09:22:34.784Z,82.7787
2024-03-31T09:23:37.947Z,82.1836
2024-03-31T09:24:41.055Z,82.5269
2024-03-31T09:25:44.225Z,82.9526
2024-03-31T09:26:47.399Z,83.0259
2024-03-31T09:27:50.504Z,84.1367
2024-03-31T09:28:53.669Z,82.4216
2024-03-31T09:29:56.655Z,82.8794
2024-03-31T09:30:59.753Z,82.6093
2024-03-31T09:32:02.762Z,81.6052
2024-03-31T09:33:05.766Z,81.6831
2024-03-31T09:34:08.853Z,82.7604
2024-03-31T09:35:11.920Z,81.5290
2024-03-31T09:36:14.902Z,81.4450
2024-03-31T09:37:17.988Z,81.2726
2024-03-31T09:38:21.001Z,80.6256
2024-03-31T09:39:24.024Z,81.3535
2024-03-31T09:40:27.080Z,79.7696
2024-03-31T09:41:30.153Z,80.5035
2024-03-31T09:42:33.147Z,78.4070
2024-03-31T09:43:36.222Z,79.2569
2024-03-31T09:44:39.269Z,78.3185
2024-03-31T09:45:42.443Z,77.2564
2024-03-31T09:46:45.536Z,76.6751
2024-03-31T09:47:48.710Z,75.2300
2024-03-31T09:48:51.764Z,75.2300
2024-03-31T09:49:54.759Z,75.2056
2024-03-31T09:50:57.825Z,77.5189
2024-03-31T09:52:00.825Z,78.7778
2024-03-31T09:53:03.883Z,78.5977
2024-03-31T09:54:06.950Z,79.3851
2024-03-31T09:55:09.924Z,78.8678
2024-03-31T09:56:13.020Z,80.1221
2024-03-31T09:57:16.062Z,78.9136
2024-03-31T09:58:19.088Z,80.0046
2024-03-31T09:59:22.107Z,79.8947
2024-03-31T10:00:25.086Z,80.5631
2024-03-31T10:01:28.201Z,79.7620
2024-03-31T10:02:31.198Z,79.3591
2024-03-31T10:03:34.283Z,79.3942
2024-03-31T10:04:37.331Z,79.2172
2024-03-31T10:05:40.336Z,78.1231
2024-03-31T10:06:43.429Z,78.0484
2024-03-31T10:07:46.475Z,78.1094
2024-03-31T10:08:49.671Z,77.2396
2024-03-31T10:09:52.809Z,77.4685
2024-03-31T10:10:55.882Z,76.6201
2024-03-31T10:11:59.095Z,78.0209
2024-03-31T10:13:02.182Z,76.8719
2024-03-31T10:14:05.307Z,76.3958
2024-03-31T10:15:08.527Z,76.5759
2024-03-31T10:16:11.623Z,74.3816
2024-03-31T10:17:14.746Z,73.9284
2024-03-31T10:18:17.808Z,75.1247
2024-03-31T10:19:20.902Z,76.8582
2024-03-31T10:20:23.857Z,76.0616
2024-03-31T10:21:26.858Z,74.6334
2024-03-31T10:22:29.975Z,74.5006
2024-03-31T10:23:33.030Z,74.8623
2024-03-31T10:24:36.029Z,73.0343
2024-03-31T10:25:39.075Z,73.0358
2024-03-31T10:26:42.091Z,71.1452
2024-03-31T10:27:45.144Z,71.6533
2024-03-31T10:28:48.206Z,72.5078
2024-03-31T10:29:51.249Z,71.2917
2024-03-31T10:30:54.311Z,73.0861
2024-03-31T10:31:57.343Z,73.5256
2024-03-31T10:33:00.356Z,72.1737
2024-03-31T10:34:03.434Z,72.9656
2024-03-31T10:35:06.646Z,74.5052
2024-03-31T10:36:09.828Z,72.9076
2024-03-31T10:37:12.847Z,73.9330
2024-03-31T10:38:15.855Z,72.0104
2024-03-31T10:39:18.958Z,71.3512
2024-03-31T10:40:21.970Z,72.0226
2024-03-31T10:41:25.010Z,71.8914
2024-03-31T10:42:28.084Z,73.1304
2024-03-31T10:43:31.069Z,70.7591
2024-03-31T10:44:34.162Z,70.6767
2024-03-31T10:45:37.186Z,68.0766
2024-03-31T10:46:40.183Z,71.4275
2024-03-31T10:47:43.428Z,69.3233
2024-03-31T10:48:46.638Z,69.2164
2024-03-31T10:49:49.624Z,69.2958
2024-03-31T10:50:52.670Z,69.6971
2024-03-31T10:51:55.769Z,69.0608
2024-03-31T10:52:58.776Z,67.6463
2024-03-31T10:54:01.829Z,68.7221
2024-03-31T10:55:04.864Z,69.8863
2024-03-31T10:56:07.849Z,69.6620
2024-03-31T10:57:10.874Z,69.8589
2024-03-31T10:58:13.975Z,70.0969
2024-03-31T10:59:17.019Z,69.7337
2024-03-31T11:00:20.199Z,68.9204
2024-03-31T11:01:23.308Z,69.0562
2024-03-31T11:02:26.473Z,69.6895
2024-03-31T11:03:29.522Z,68.7511
2024-03-31T11:04:32.552Z,68.1193
2024-03-31T11:05:35.526Z,68.7175
2024-03-31T11:06:38.519Z,70.6447
2024-03-31T11:07:41.538Z,69.1661
2024-03-31T11:08:44.731Z,69.6757
2024-03-31T11:09:47.763Z,68.6442
2024-03-31T11:10:50.775Z,68.7327
2024-03-31T11:11:55.003Z,68.4108
2024-03-31T11:12:59.102Z,68.7266
2024-03-31T11:14:02.163Z,66.6499
2024-03-31T11:15:05.308Z,66.2333
2024-03-31T11:16:08.418Z,62.7909
2024-03-31T11:17:11.591Z,62.6902
2024-03-31T11:18:14.746Z,62.4048
2024-03-31T11:19:20.025Z,60.9186
2024-03-31T11:20:24.422Z,62.8595
2024-03-31T11:21:27.624Z,58.6145
2024-03-31T11:22:30.610Z,58.2773
2024-03-31T11:23:33.661Z,59.9466
2024-03-31T11:24:36.713Z,61.2100
2024-03-31T11:25:39.721Z,60.5646
2024-03-31T11:26:42.763Z,61.6281
2024-03-31T11:27:45.851Z,60.9125
2024-03-31T11:28:48.809Z,64.5289
2024-03-31T11:29:51.881Z,65.0233
2024-03-31T11:30:54.979Z,65.1057
2024-03-31T11:31:58.002Z,64.4846
2024-03-31T11:33:01.065Z,64.6723
2024-03-31T11:34:04.114Z,66.8177
2024-03-31T11:35:07.104Z,66.9245
2024-03-31T11:36:10.113Z,66.1692
2024-03-31T11:37:13.104Z,66.0716
2024-03-31T11:38:16.149Z,65.1209
2024-03-31T11:39:19.183Z,65.3864
2024-03-31T11:40:22.215Z,65.4536
2024-03-31T11:41:25.218Z,64.6799
2024-03-31T11:42:28.239Z,65.0187
2024-03-31T11:43:31.294Z,65.5741
2024-03-31T11:44:34.287Z,63.7476
2024-03-31T11:45:37.330Z,62.3102
2024-03-31T11:46:40.360Z,61.8143
2024-03-31T11:47:43.368Z,60.0382
2024-03-31T11:48:46.367Z,60.5463
2024-03-31T11:49:49.383Z,59.8337
2024-03-31T11:50:52.414Z,61.9852
2024-03-31T11:51:55.419Z,61.9806
2024-03-31T11:52:58.419Z,60.5646
2024-03-31T11:54:01.422Z,61.6541
2024-03-31T11:55:04.455Z,61.9623
2024-03-31T11:56:07.456Z,60.6439
2024-03-31T11:57:10.484Z,61.3794
2024-03-31T11:58:13.485Z,59.2554
2024-03-31T11:59:16.485Z,59.1974
2024-03-31T12:00:19.492Z,59.2935
2024-03-31T12:01:22.523Z,55.7183
2024-03-31T12:02:25.536Z,57.0779
2024-03-31T12:03:28.524Z,58.1430
2024-03-31T12:04:31.577Z,55.4940
2024-03-31T12:05:34.536Z,56.1028
2024-03-31T12:06:37.558Z,57.9568
2024-03-31T12:07:40.593Z,56.1578
2024-03-31T12:08:47.542Z,58.0560
2024-03-31T12:09:51.037Z,57.7462
2024-03-31T12:10:54.041Z,56.1624
2024-03-31T12:11:59.900Z,56.7575
2024-03-31T12:13:03.421Z,56.1166
2024-03-31T12:14:06.438Z,56.3729
2024-03-31T12:15:09.468Z,51.9921
2024-03-31T12:16:12.471Z,50.5867
2024-03-31T12:17:15.464Z,48.9647
2024-03-31T12:18:18.483Z,49.3355
2024-03-31T12:19:21.459Z,56.0235
2024-03-31T12:20:24.483Z,56.9085
2024-03-31T12:21:27.500Z,58.3322
2024-03-31T12:22:30.519Z,58.4375
2024-03-31T12:23:33.587Z,59.0143
2024-03-31T12:24:36.587Z,60.1663
2024-03-31T12:25:39.563Z,59.9832
2024-03-31T12:26:42.569Z,59.8886
2024-03-31T12:27:45.525Z,59.8779
2024-03-31T12:28:48.560Z,58.1476
2024-03-31T12:29:51.585Z,56.6094
2024-03-31T12:30:54.612Z,59.4247
2024-03-31T12:31:57.868Z,56.1120
2024-03-31T12:33:00.822Z,54.5495
2024-03-31T12:34:03.795Z,57.4380
2024-03-31T12:35:06.818Z,56.1852
2024-03-31T12:36:09.785Z,54.5327
2024-03-31T12:37:12.773Z,54.7570
2024-03-31T12:38:15.796Z,54.9905
2024-03-31T12:39:18.800Z,50.8934
2024-03-31T12:40:21.849Z,50.7103
2024-03-31T12:41:25.951Z,48.0766
2024-03-31T12:42:29.152Z,47.1107
2024-03-31T12:43:32.140Z,52.1141